sensor_id;sensor_type;location;lat;lon;timestamp;temperature;humidity
66312;HTU21D;53114;51.138;6.008;2023-04-19T00:00:41;12.56;114.54
66312;HTU21D;53114;51.138;6.008;2023-04-19T00:03:08;12.57;114.45
66312;HTU21D;53114;51.138;6.008;2023-04-19T00:05:35;12.58;114.09
66312;HTU21D;53114;51.138;6.008;2023-04-19T00:08:04;12.58;113.96
66312;HTU21D;53114;51.138;6.008;2023-04-19T00:10:30;12.60;114.00
66312;HTU21D;53114;51.138;6.008;2023-04-19T00:12:56;12.60;114.29
66312;HTU21D;53114;51.138;6.008;2023-04-19T00:15:22;12.58;113.97
66312;HTU21D;53114;51.138;6.008;2023-04-19T00:17:48;12.56;113.90
66312;HTU21D;53114;51.138;6.008;2023-04-19T00:20:14;12.53;114.04
66312;HTU21D;53114;51.138;6.008;2023-04-19T00:22:40;12.53;114.64
66312;HTU21D;53114;51.138;6.008;2023-04-19T00:25:06;12.52;114.71
66312;HTU21D;53114;51.138;6.008;2023-04-19T00:27:32;12.55;114.90
66312;HTU21D;53114;51.138;6.008;2023-04-19T00:29:59;12.57;114.96
66312;HTU21D;53114;51.138;6.008;2023-04-19T00:32:25;12.60;114.67
66312;HTU21D;53114;51.138;6.008;2023-04-19T00:34:51;12.63;114.64
66312;HTU21D;53114;51.138;6.008;2023-04-19T00:37:17;12.64;114.51
66312;HTU21D;53114;51.138;6.008;2023-04-19T00:39:43;12.69;114.27
66312;HTU21D;53114;51.138;6.008;2023-04-19T00:42:09;12.71;114.00
66312;HTU21D;53114;51.138;6.008;2023-04-19T00:44:34;12.72;113.75
66312;HTU21D;53114;51.138;6.008;2023-04-19T00:47:00;12.73;113.64
66312;HTU21D;53114;51.138;6.008;2023-04-19T00:49:27;12.71;113.80
66312;HTU21D;53114;51.138;6.008;2023-04-19T00:51:53;12.71;114.04
66312;HTU21D;53114;51.138;6.008;2023-04-19T00:54:19;12.69;114.17
66312;HTU21D;53114;51.138;6.008;2023-04-19T00:56:48;12.64;114.22
66312;HTU21D;53114;51.138;6.008;2023-04-19T00:59:16;12.63;114.29
66312;HTU21D;53114;51.138;6.008;2023-04-19T01:01:43;12.62;114.68
66312;HTU21D;53114;51.138;6.008;2023-04-19T01:04:09;12.62;114.49
66312;HTU21D;53114;51.138;6.008;2023-04-19T01:06:36;12.58;115.01
66312;HTU21D;53114;51.138;6.008;2023-04-19T01:09:02;12.55;114.96
66312;HTU21D;53114;51.138;6.008;2023-04-19T01:11:29;12.58;115.11
66312;HTU21D;53114;51.138;6.008;2023-04-19T01:13:55;12.58;115.07
66312;HTU21D;53114;51.138;6.008;2023-04-19T01:16:21;12.57;115.43
66312;HTU21D;53114;51.138;6.008;2023-04-19T01:18:49;12.53;115.83
66312;HTU21D;53114;51.138;6.008;2023-04-19T01:21:16;12.53;116.00
66312;HTU21D;53114;51.138;6.008;2023-04-19T01:23:43;12.55;116.17
66312;HTU21D;53114;51.138;6.008;2023-04-19T01:26:10;12.55;116.30
66312;HTU21D;53114;51.138;6.008;2023-04-19T01:28:36;12.55;116.55
66312;HTU21D;53114;51.138;6.008;2023-04-19T01:31:02;12.57;116.66
66312;HTU21D;53114;51.138;6.008;2023-04-19T01:33:28;12.53;116.73
66312;HTU21D;53114;51.138;6.008;2023-04-19T01:35:54;12.55;116.75
66312;HTU21D;53114;51.138;6.008;2023-04-19T01:38:20;12.52;117.03
66312;HTU21D;53114;51.138;6.008;2023-04-19T01:40:46;12.47;117.26
66312;HTU21D;53114;51.138;6.008;2023-04-19T01:43:13;12.43;117.83
66312;HTU21D;53114;51.138;6.008;2023-04-19T01:45:39;12.37;118.33
66312;HTU21D;53114;51.138;6.008;2023-04-19T01:48:05;12.35;118.87
66312;HTU21D;53114;51.138;6.008;2023-04-19T01:50:33;12.30;118.99
66312;HTU21D;53114;51.138;6.008;2023-04-19T01:52:59;12.34;118.99
66312;HTU21D;53114;51.138;6.008;2023-04-19T01:55:25;12.32;118.99
66312;HTU21D;53114;51.138;6.008;2023-04-19T01:57:52;12.34;118.99
66312;HTU21D;53114;51.138;6.008;2023-04-19T02:00:19;12.35;118.99
66312;HTU21D;53114;51.138;6.008;2023-04-19T02:02:47;12.33;118.99
66312;HTU21D;53114;51.138;6.008;2023-04-19T02:05:14;12.31;118.99
66312;HTU21D;53114;51.138;6.008;2023-04-19T02:07:40;12.27;118.99
66312;HTU21D;53114;51.138;6.008;2023-04-19T02:10:09;12.27;118.99
66312;HTU21D;53114;51.138;6.008;2023-04-19T02:12:36;12.21;118.99
66312;HTU21D;53114;51.138;6.008;2023-04-19T02:15:02;12.14;118.99
66312;HTU21D;53114;51.138;6.008;2023-04-19T02:17:33;12.03;118.99
66312;HTU21D;53114;51.138;6.008;2023-04-19T02:20:00;11.94;118.99
66312;HTU21D;53114;51.138;6.008;2023-04-19T02:22:26;11.84;118.99
66312;HTU21D;53114;51.138;6.008;2023-04-19T02:24:52;11.75;118.99
66312;HTU21D;53114;51.138;6.008;2023-04-19T02:27:18;11.66;118.99
66312;HTU21D;53114;51.138;6.008;2023-04-19T02:29:44;11.55;118.99
66312;HTU21D;53114;51.138;6.008;2023-04-19T02:32:11;11.49;118.99
66312;HTU21D;53114;51.138;6.008;2023-04-19T02:34:38;11.41;118.99
66312;HTU21D;53114;51.138;6.008;2023-04-19T02:37:04;11.36;118.99
66312;HTU21D;53114;51.138;6.008;2023-04-19T02:39:30;11.33;118.99
66312;HTU21D;53114;51.138;6.008;2023-04-19T02:41:56;11.31;118.99
66312;HTU21D;53114;51.138;6.008;2023-04-19T02:44:22;11.26;118.99
66312;HTU21D;53114;51.138;6.008;2023-04-19T02:46:52;11.18;118.99
66312;HTU21D;53114;51.138;6.008;2023-04-19T02:49:19;11.15;118.99
66312;HTU21D;53114;51.138;6.008;2023-04-19T02:51:45;11.08;118.99
66312;HTU21D;53114;51.138;6.008;2023-04-19T02:54:13;11.04;118.99
66312;HTU21D;53114;51.138;6.008;2023-04-19T02:56:40;11.01;118.99
66312;HTU21D;53114;51.138;6.008;2023-04-19T02:59:06;11.00;118.99
66312;HTU21D;53114;51.138;6.008;2023-04-19T03:01:32;11.00;118.99
66312;HTU21D;53114;51.138;6.008;2023-04-19T03:04:02;10.98;118.99
66312;HTU21D;53114;51.138;6.008;2023-04-19T03:06:28;10.94;118.99
66312;HTU21D;53114;51.138;6.008;2023-04-19T03:08:54;10.93;118.99
66312;HTU21D;53114;51.138;6.008;2023-04-19T03:11:20;10.90;118.99
66312;HTU21D;53114;51.138;6.008;2023-04-19T03:13:46;10.92;118.99
66312;HTU21D;53114;51.138;6.008;2023-04-19T03:16:13;10.95;118.99
66312;HTU21D;53114;51.138;6.008;2023-04-19T03:18:40;10.97;118.99
66312;HTU21D;53114;51.138;6.008;2023-04-19T03:21:06;11.00;118.99
66312;HTU21D;53114;51.138;6.008;2023-04-19T03:23:45;11.05;118.99
66312;HTU21D;53114;51.138;6.008;2023-04-19T03:26:12;11.13;118.99
66312;HTU21D;53114;51.138;6.008;2023-04-19T03:28:44;11.20;118.99
66312;HTU21D;53114;51.138;6.008;2023-04-19T03:31:11;11.27;118.99
66312;HTU21D;53114;51.138;6.008;2023-04-19T03:33:37;11.31;118.99
66312;HTU21D;53114;51.138;6.008;2023-04-19T03:36:04;11.39;118.99
66312;HTU21D;53114;51.138;6.008;2023-04-19T03:38:30;11.49;118.99
66312;HTU21D;53114;51.138;6.008;2023-04-19T03:40:56;11.58;118.99
66312;HTU21D;53114;51.138;6.008;2023-04-19T03:43:24;11.63;118.99
66312;HTU21D;53114;51.138;6.008;2023-04-19T03:45:50;11.69;118.99
66312;HTU21D;53114;51.138;6.008;2023-04-19T03:48:16;11.72;118.99
66312;HTU21D;53114;51.138;6.008;2023-04-19T03:50:42;11.79;118.99
66312;HTU21D;53114;51.138;6.008;2023-04-19T03:53:12;11.86;118.99
66312;HTU21D;53114;51.138;6.008;2023-04-19T03:55:38;11.93;118.99
66312;HTU21D;53114;51.138;6.008;2023-04-19T03:58:03;12.01;118.99
66312;HTU21D;53114;51.138;6.008;2023-04-19T04:00:43;12.06;118.99
66312;HTU21D;53114;51.138;6.008;2023-04-19T04:03:08;12.08;118.99
66312;HTU21D;53114;51.138;6.008;2023-04-19T04:05:34;12.14;118.99
66312;HTU21D;53114;51.138;6.008;2023-04-19T04:08:00;12.19;118.99
66312;HTU21D;53114;51.138;6.008;2023-04-19T04:10:26;12.23;118.99
66312;HTU21D;53114;51.138;6.008;2023-04-19T04:12:52;12.26;118.99
66312;HTU21D;53114;51.138;6.008;2023-04-19T04:15:24;12.27;118.99
66312;HTU21D;53114;51.138;6.008;2023-04-19T04:17:52;12.31;118.99
66312;HTU21D;53114;51.138;6.008;2023-04-19T04:20:19;12.34;118.99
66312;HTU21D;53114;51.138;6.008;2023-04-19T04:22:46;12.35;118.99
66312;HTU21D;53114;51.138;6.008;2023-04-19T04:25:14;12.34;118.99
66312;HTU21D;53114;51.138;6.008;2023-04-19T04:27:44;12.37;118.99
66312;HTU21D;53114;51.138;6.008;2023-04-19T04:30:15;12.38;118.99
66312;HTU21D;53114;51.138;6.008;2023-04-19T04:32:40;12.33;118.99
66312;HTU21D;53114;51.138;6.008;2023-04-19T04:35:07;12.33;118.99
66312;HTU21D;53114;51.138;6.008;2023-04-19T04:37:56;12.34;118.99
66312;HTU21D;53114;51.138;6.008;2023-04-19T04:40:23;12.35;118.99
66312;HTU21D;53114;51.138;6.008;2023-04-19T04:42:49;12.38;118.99
66312;HTU21D;53114;51.138;6.008;2023-04-19T04:45:17;12.42;118.99
66312;HTU21D;53114;51.138;6.008;2023-04-19T04:47:44;12.42;118.99
66312;HTU21D;53114;51.138;6.008;2023-04-19T04:50:14;12.38;118.99
66312;HTU21D;53114;51.138;6.008;2023-04-19T04:52:40;12.35;118.99
66312;HTU21D;53114;51.138;6.008;2023-04-19T04:55:10;12.34;118.99
66312;HTU21D;53114;51.138;6.008;2023-04-19T04:57:41;12.35;118.99
66312;HTU21D;53114;51.138;6.008;2023-04-19T05:00:11;12.37;118.99
66312;HTU21D;53114;51.138;6.008;2023-04-19T05:02:46;12.38;118.99
66312;HTU21D;53114;51.138;6.008;2023-04-19T05:05:13;12.38;118.99
66312;HTU21D;53114;51.138;6.008;2023-04-19T05:07:39;12.36;118.99
66312;HTU21D;53114;51.138;6.008;2023-04-19T05:10:06;12.38;118.99
66312;HTU21D;53114;51.138;6.008;2023-04-19T05:12:41;12.38;118.99
66312;HTU21D;53114;51.138;6.008;2023-04-19T05:15:07;12.40;118.99
66312;HTU21D;53114;51.138;6.008;2023-04-19T05:17:35;12.36;118.99
66312;HTU21D;53114;51.138;6.008;2023-04-19T05:20:01;12.37;118.99
66312;HTU21D;53114;51.138;6.008;2023-04-19T05:22:29;12.36;118.99
66312;HTU21D;53114;51.138;6.008;2023-04-19T05:24:56;12.37;118.99
66312;HTU21D;53114;51.138;6.008;2023-04-19T05:27:22;12.38;118.99
66312;HTU21D;53114;51.138;6.008;2023-04-19T05:29:48;12.41;118.99
66312;HTU21D;53114;51.138;6.008;2023-04-19T05:32:16;12.38;118.99
66312;HTU21D;53114;51.138;6.008;2023-04-19T05:34:47;12.40;118.99
66312;HTU21D;53114;51.138;6.008;2023-04-19T05:37:14;12.43;118.99
66312;HTU21D;53114;51.138;6.008;2023-04-19T05:39:40;12.44;118.99
66312;HTU21D;53114;51.138;6.008;2023-04-19T05:42:06;12.44;118.99
66312;HTU21D;53114;51.138;6.008;2023-04-19T05:44:32;12.49;118.99
66312;HTU21D;53114;51.138;6.008;2023-04-19T05:46:58;12.50;118.99
66312;HTU21D;53114;51.138;6.008;2023-04-19T05:49:44;12.52;118.99
66312;HTU21D;53114;51.138;6.008;2023-04-19T05:52:23;12.55;118.99
66312;HTU21D;53114;51.138;6.008;2023-04-19T05:54:53;12.57;118.99
66312;HTU21D;53114;51.138;6.008;2023-04-19T05:57:19;12.61;118.99
66312;HTU21D;53114;51.138;6.008;2023-04-19T05:59:46;12.67;118.99
66312;HTU21D;53114;51.138;6.008;2023-04-19T06:02:15;12.73;118.99
66312;HTU21D;53114;51.138;6.008;2023-04-19T06:04:41;12.74;118.99
66312;HTU21D;53114;51.138;6.008;2023-04-19T06:07:07;12.78;118.70
66312;HTU21D;53114;51.138;6.008;2023-04-19T06:09:32;12.81;117.21
66312;HTU21D;53114;51.138;6.008;2023-04-19T06:11:58;12.86;116.53
66312;HTU21D;53114;51.138;6.008;2023-04-19T06:14:26;12.92;115.49
66312;HTU21D;53114;51.138;6.008;2023-04-19T06:16:52;13.03;115.00
66312;HTU21D;53114;51.138;6.008;2023-04-19T06:19:18;13.16;112.69
66312;HTU21D;53114;51.138;6.008;2023-04-19T06:21:44;13.25;113.01
66312;HTU21D;53114;51.138;6.008;2023-04-19T06:24:10;13.32;111.23
66312;HTU21D;53114;51.138;6.008;2023-04-19T06:26:36;13.38;109.01
66312;HTU21D;53114;51.138;6.008;2023-04-19T06:29:02;13.44;107.22
66312;HTU21D;53114;51.138;6.008;2023-04-19T06:31:28;13.43;104.14
66312;HTU21D;53114;51.138;6.008;2023-04-19T06:33:54;13.55;102.76
66312;HTU21D;53114;51.138;6.008;2023-04-19T06:36:20;13.65;100.94
66312;HTU21D;53114;51.138;6.008;2023-04-19T06:38:45;13.84;98.13
66312;HTU21D;53114;51.138;6.008;2023-04-19T06:41:11;13.97;96.29
66312;HTU21D;53114;51.138;6.008;2023-04-19T06:43:37;13.90;94.27
66312;HTU21D;53114;51.138;6.008;2023-04-19T06:46:07;13.74;93.33
66312;HTU21D;53114;51.138;6.008;2023-04-19T06:48:34;13.47;93.49
66312;HTU21D;53114;51.138;6.008;2023-04-19T06:51:00;13.33;94.97
66312;HTU21D;53114;51.138;6.008;2023-04-19T06:53:26;13.24;94.56
66312;HTU21D;53114;51.138;6.008;2023-04-19T06:55:58;13.17;94.91
66312;HTU21D;53114;51.138;6.008;2023-04-19T06:58:26;13.14;95.39
66312;HTU21D;53114;51.138;6.008;2023-04-19T07:00:52;13.18;95.89
66312;HTU21D;53114;51.138;6.008;2023-04-19T07:03:19;13.30;96.47
66312;HTU21D;53114;51.138;6.008;2023-04-19T07:05:45;13.45;95.20
66312;HTU21D;53114;51.138;6.008;2023-04-19T07:08:11;13.62;93.65
66312;HTU21D;53114;51.138;6.008;2023-04-19T07:10:36;13.80;92.48
66312;HTU21D;53114;51.138;6.008;2023-04-19T07:13:02;14.04;87.53
66312;HTU21D;53114;51.138;6.008;2023-04-19T07:15:28;14.18;86.99
66312;HTU21D;53114;51.138;6.008;2023-04-19T07:17:54;14.28;83.81
66312;HTU21D;53114;51.138;6.008;2023-04-19T07:20:20;14.34;82.64
66312;HTU21D;53114;51.138;6.008;2023-04-19T07:22:46;14.27;82.49
66312;HTU21D;53114;51.138;6.008;2023-04-19T07:25:13;14.30;83.29
66312;HTU21D;53114;51.138;6.008;2023-04-19T07:27:38;14.35;83.78
66312;HTU21D;53114;51.138;6.008;2023-04-19T07:30:05;14.52;83.18
66312;HTU21D;53114;51.138;6.008;2023-04-19T07:32:31;14.65;81.61
66312;HTU21D;53114;51.138;6.008;2023-04-19T07:34:57;14.78;79.13
66312;HTU21D;53114;51.138;6.008;2023-04-19T07:37:23;14.86;77.03
66312;HTU21D;53114;51.138;6.008;2023-04-19T07:39:49;15.09;74.37
66312;HTU21D;53114;51.138;6.008;2023-04-19T07:42:15;15.29;72.51
66312;HTU21D;53114;51.138;6.008;2023-04-19T07:44:41;15.33;69.17
66312;HTU21D;53114;51.138;6.008;2023-04-19T07:47:07;15.25;70.30
66312;HTU21D;53114;51.138;6.008;2023-04-19T07:49:33;15.57;71.55
66312;HTU21D;53114;51.138;6.008;2023-04-19T07:52:00;16.12;65.88
66312;HTU21D;53114;51.138;6.008;2023-04-19T07:54:28;16.76;62.36
66312;HTU21D;53114;51.138;6.008;2023-04-19T07:56:55;17.21;56.41
66312;HTU21D;53114;51.138;6.008;2023-04-19T07:59:23;17.31;52.98
66312;HTU21D;53114;51.138;6.008;2023-04-19T08:01:49;17.30;52.94
66312;HTU21D;53114;51.138;6.008;2023-04-19T08:04:15;17.55;51.13
66312;HTU21D;53114;51.138;6.008;2023-04-19T08:06:44;17.79;49.85
66312;HTU21D;53114;51.138;6.008;2023-04-19T08:09:10;17.67;49.11
66312;HTU21D;53114;51.138;6.008;2023-04-19T08:11:36;17.48;50.41
66312;HTU21D;53114;51.138;6.008;2023-04-19T08:14:02;18.12;50.14
66312;HTU21D;53114;51.138;6.008;2023-04-19T08:16:28;18.73;45.98
66312;HTU21D;53114;51.138;6.008;2023-04-19T08:18:54;18.71;42.39
66312;HTU21D;53114;51.138;6.008;2023-04-19T08:21:20;18.91;44.90
66312;HTU21D;53114;51.138;6.008;2023-04-19T08:23:46;19.63;42.92
66312;HTU21D;53114;51.138;6.008;2023-04-19T08:26:12;20.27;41.77
66312;HTU21D;53114;51.138;6.008;2023-04-19T08:28:38;21.74;38.43
66312;HTU21D;53114;51.138;6.008;2023-04-19T08:31:07;22.93;35.64
66312;HTU21D;53114;51.138;6.008;2023-04-19T08:33:33;24.11;33.04
66312;HTU21D;53114;51.138;6.008;2023-04-19T08:35:59;24.98;30.80
66312;HTU21D;53114;51.138;6.008;2023-04-19T08:38:25;25.77;29.26
66312;HTU21D;53114;51.138;6.008;2023-04-19T08:40:52;26.75;27.51
66312;HTU21D;53114;51.138;6.008;2023-04-19T08:43:20;27.78;25.39
66312;HTU21D;53114;51.138;6.008;2023-04-19T08:45:50;28.59;23.98
66312;HTU21D;53114;51.138;6.008;2023-04-19T08:48:17;29.08;23.17
66312;HTU21D;53114;51.138;6.008;2023-04-19T08:50:43;29.26;22.70
66312;HTU21D;53114;51.138;6.008;2023-04-19T08:53:14;29.42;22.43
66312;HTU21D;53114;51.138;6.008;2023-04-19T08:55:41;29.17;22.75
66312;HTU21D;53114;51.138;6.008;2023-04-19T08:58:10;29.31;22.04
66312;HTU21D;53114;51.138;6.008;2023-04-19T09:00:38;29.21;21.52
66312;HTU21D;53114;51.138;6.008;2023-04-19T09:03:06;29.45;21.57
66312;HTU21D;53114;51.138;6.008;2023-04-19T09:05:33;29.75;20.73
66312;HTU21D;53114;51.138;6.008;2023-04-19T09:08:22;30.05;20.04
66312;HTU21D;53114;51.138;6.008;2023-04-19T09:10:59;30.02;19.86
66312;HTU21D;53114;51.138;6.008;2023-04-19T09:13:27;30.28;19.70
66312;HTU21D;53114;51.138;6.008;2023-04-19T09:15:54;30.47;19.26
66312;HTU21D;53114;51.138;6.008;2023-04-19T09:18:23;30.74;19.17
66312;HTU21D;53114;51.138;6.008;2023-04-19T09:20:52;31.08;18.98
66312;HTU21D;53114;51.138;6.008;2023-04-19T09:23:26;30.98;17.82
66312;HTU21D;53114;51.138;6.008;2023-04-19T09:26:01;30.39;18.90
66312;HTU21D;53114;51.138;6.008;2023-04-19T09:28:27;30.39;18.70
66312;HTU21D;53114;51.138;6.008;2023-04-19T09:30:54;30.46;18.11
66312;HTU21D;53114;51.138;6.008;2023-04-19T09:33:35;30.23;18.22
66312;HTU21D;53114;51.138;6.008;2023-04-19T09:36:05;29.96;18.01
66312;HTU21D;53114;51.138;6.008;2023-04-19T09:38:48;29.96;18.51
66312;HTU21D;53114;51.138;6.008;2023-04-19T09:41:14;30.27;18.54
66312;HTU21D;53114;51.138;6.008;2023-04-19T09:43:42;31.15;17.07
66312;HTU21D;53114;51.138;6.008;2023-04-19T09:46:08;31.53;16.51
66312;HTU21D;53114;51.138;6.008;2023-04-19T09:48:34;31.48;16.47
66312;HTU21D;53114;51.138;6.008;2023-04-19T09:51:01;31.36;15.92
66312;HTU21D;53114;51.138;6.008;2023-04-19T09:53:30;31.19;16.35
66312;HTU21D;53114;51.138;6.008;2023-04-19T09:55:58;30.80;15.55
66312;HTU21D;53114;51.138;6.008;2023-04-19T09:58:24;30.17;17.18
66312;HTU21D;53114;51.138;6.008;2023-04-19T10:00:51;29.94;17.99
66312;HTU21D;53114;51.138;6.008;2023-04-19T10:03:19;30.32;16.94
66312;HTU21D;53114;51.138;6.008;2023-04-19T10:05:46;30.22;16.55
66312;HTU21D;53114;51.138;6.008;2023-04-19T10:08:13;30.37;16.88
66312;HTU21D;53114;51.138;6.008;2023-04-19T10:10:40;30.26;17.48
66312;HTU21D;53114;51.138;6.008;2023-04-19T10:13:09;29.96;17.89
66312;HTU21D;53114;51.138;6.008;2023-04-19T10:15:36;30.53;17.57
66312;HTU21D;53114;51.138;6.008;2023-04-19T10:18:07;30.44;16.46
66312;HTU21D;53114;51.138;6.008;2023-04-19T10:23:14;29.90;15.72
66312;HTU21D;53114;51.138;6.008;2023-04-19T10:25:45;28.67;17.19
66312;HTU21D;53114;51.138;6.008;2023-04-19T10:28:11;27.63;18.00
66312;HTU21D;53114;51.138;6.008;2023-04-19T10:30:58;26.96;19.13
66312;HTU21D;53114;51.138;6.008;2023-04-19T10:33:33;27.49;18.21
66312;HTU21D;53114;51.138;6.008;2023-04-19T10:36:00;28.02;19.07
66312;HTU21D;53114;51.138;6.008;2023-04-19T10:41:14;29.33;16.51
66312;HTU21D;53114;51.138;6.008;2023-04-19T10:43:46;29.24;15.80
66312;HTU21D;53114;51.138;6.008;2023-04-19T10:46:34;29.07;16.01
66312;HTU21D;53114;51.138;6.008;2023-04-19T10:49:02;29.44;15.43
66312;HTU21D;53114;51.138;6.008;2023-04-19T10:51:35;29.36;15.25
66312;HTU21D;53114;51.138;6.008;2023-04-19T10:54:03;29.37;15.82
66312;HTU21D;53114;51.138;6.008;2023-04-19T11:01:39;28.63;16.18
66312;HTU21D;53114;51.138;6.008;2023-04-19T11:04:08;28.98;15.64
66312;HTU21D;53114;51.138;6.008;2023-04-19T11:06:36;29.05;15.48
66312;HTU21D;53114;51.138;6.008;2023-04-19T11:09:02;28.94;14.55
66312;HTU21D;53114;51.138;6.008;2023-04-19T11:11:33;28.53;14.40
66312;HTU21D;53114;51.138;6.008;2023-04-19T11:14:04;28.23;14.91
66312;HTU21D;53114;51.138;6.008;2023-04-19T11:16:32;27.96;14.93
66312;HTU21D;53114;51.138;6.008;2023-04-19T11:18:58;27.50;15.21
66312;HTU21D;53114;51.138;6.008;2023-04-19T11:21:24;26.92;15.99
66312;HTU21D;53114;51.138;6.008;2023-04-19T11:24:09;26.38;16.81
66312;HTU21D;53114;51.138;6.008;2023-04-19T11:26:35;26.23;16.96
66312;HTU21D;53114;51.138;6.008;2023-04-19T11:29:01;25.56;18.24
66312;HTU21D;53114;51.138;6.008;2023-04-19T11:31:27;25.29;18.96
66312;HTU21D;53114;51.138;6.008;2023-04-19T11:33:53;25.46;19.72
66312;HTU21D;53114;51.138;6.008;2023-04-19T11:36:19;25.00;18.70
66312;HTU21D;53114;51.138;6.008;2023-04-19T11:38:47;24.26;19.51
66312;HTU21D;53114;51.138;6.008;2023-04-19T11:41:13;23.46;19.79
66312;HTU21D;53114;51.138;6.008;2023-04-19T11:43:39;22.84;22.12
66312;HTU21D;53114;51.138;6.008;2023-04-19T11:46:08;22.76;23.21
66312;HTU21D;53114;51.138;6.008;2023-04-19T11:48:35;22.69;22.79
66312;HTU21D;53114;51.138;6.008;2023-04-19T11:51:02;22.51;22.66
66312;HTU21D;53114;51.138;6.008;2023-04-19T11:53:31;22.24;23.05
66312;HTU21D;53114;51.138;6.008;2023-04-19T11:56:05;21.77;22.94
66312;HTU21D;53114;51.138;6.008;2023-04-19T11:58:41;21.10;23.85
66312;HTU21D;53114;51.138;6.008;2023-04-19T12:01:16;20.86;24.36
66312;HTU21D;53114;51.138;6.008;2023-04-19T12:03:46;20.69;24.42
66312;HTU21D;53114;51.138;6.008;2023-04-19T12:06:18;20.37;24.35
66312;HTU21D;53114;51.138;6.008;2023-04-19T12:08:48;20.26;25.11
66312;HTU21D;53114;51.138;6.008;2023-04-19T12:11:16;20.46;24.89
66312;HTU21D;53114;51.138;6.008;2023-04-19T12:13:43;20.34;24.92
66312;HTU21D;53114;51.138;6.008;2023-04-19T12:16:10;20.44;24.41
66312;HTU21D;53114;51.138;6.008;2023-04-19T12:18:49;20.19;23.70
66312;HTU21D;53114;51.138;6.008;2023-04-19T12:21:29;19.94;23.91
66312;HTU21D;53114;51.138;6.008;2023-04-19T12:23:59;19.82;24.20
66312;HTU21D;53114;51.138;6.008;2023-04-19T12:26:27;19.80;23.96
66312;HTU21D;53114;51.138;6.008;2023-04-19T12:28:54;19.59;23.83
66312;HTU21D;53114;51.138;6.008;2023-04-19T12:31:20;19.32;23.34
66312;HTU21D;53114;51.138;6.008;2023-04-19T12:33:47;19.22;25.59
66312;HTU21D;53114;51.138;6.008;2023-04-19T12:36:13;19.30;25.11
66312;HTU21D;53114;51.138;6.008;2023-04-19T12:38:40;19.45;26.31
66312;HTU21D;53114;51.138;6.008;2023-04-19T12:41:05;19.36;25.00
66312;HTU21D;53114;51.138;6.008;2023-04-19T12:43:31;19.21;25.56
66312;HTU21D;53114;51.138;6.008;2023-04-19T12:45:58;19.18;25.23
66312;HTU21D;53114;51.138;6.008;2023-04-19T12:48:25;18.96;25.14
66312;HTU21D;53114;51.138;6.008;2023-04-19T12:50:52;18.87;25.32
66312;HTU21D;53114;51.138;6.008;2023-04-19T12:53:18;18.86;25.62
66312;HTU21D;53114;51.138;6.008;2023-04-19T12:55:45;18.81;25.81
66312;HTU21D;53114;51.138;6.008;2023-04-19T12:58:15;18.73;25.73
66312;HTU21D;53114;51.138;6.008;2023-04-19T13:00:43;18.72;25.77
66312;HTU21D;53114;51.138;6.008;2023-04-19T13:03:09;18.80;26.32
66312;HTU21D;53114;51.138;6.008;2023-04-19T13:05:37;18.74;26.33
66312;HTU21D;53114;51.138;6.008;2023-04-19T13:08:03;18.70;26.44
66312;HTU21D;53114;51.138;6.008;2023-04-19T13:10:29;18.64;26.80
66312;HTU21D;53114;51.138;6.008;2023-04-19T13:12:55;18.51;26.93
66312;HTU21D;53114;51.138;6.008;2023-04-19T13:15:21;18.43;26.71
66312;HTU21D;53114;51.138;6.008;2023-04-19T13:17:47;18.26;26.48
66312;HTU21D;53114;51.138;6.008;2023-04-19T13:20:13;18.11;27.04
66312;HTU21D;53114;51.138;6.008;2023-04-19T13:22:38;18.14;26.91
66312;HTU21D;53114;51.138;6.008;2023-04-19T13:25:05;18.34;27.40
66312;HTU21D;53114;51.138;6.008;2023-04-19T13:27:31;18.54;27.54
66312;HTU21D;53114;51.138;6.008;2023-04-19T13:29:57;18.63;27.38
66312;HTU21D;53114;51.138;6.008;2023-04-19T13:32:23;18.55;27.46
66312;HTU21D;53114;51.138;6.008;2023-04-19T13:34:48;18.55;27.55
66312;HTU21D;53114;51.138;6.008;2023-04-19T13:37:14;18.72;27.95
66312;HTU21D;53114;51.138;6.008;2023-04-19T13:39:41;18.92;27.24
66312;HTU21D;53114;51.138;6.008;2023-04-19T13:42:07;18.92;26.50
66312;HTU21D;53114;51.138;6.008;2023-04-19T13:44:33;18.85;26.16
66312;HTU21D;53114;51.138;6.008;2023-04-19T13:46:59;18.65;26.55
66312;HTU21D;53114;51.138;6.008;2023-04-19T13:49:25;18.58;27.32
66312;HTU21D;53114;51.138;6.008;2023-04-19T13:51:51;18.52;27.15
66312;HTU21D;53114;51.138;6.008;2023-04-19T13:54:17;18.56;27.63
66312;HTU21D;53114;51.138;6.008;2023-04-19T13:56:43;18.58;27.50
66312;HTU21D;53114;51.138;6.008;2023-04-19T13:59:09;18.53;27.35
66312;HTU21D;53114;51.138;6.008;2023-04-19T14:01:36;18.65;26.86
66312;HTU21D;53114;51.138;6.008;2023-04-19T14:04:01;18.65;25.46
66312;HTU21D;53114;51.138;6.008;2023-04-19T14:06:27;18.55;25.38
66312;HTU21D;53114;51.138;6.008;2023-04-19T14:08:53;18.44;25.57
66312;HTU21D;53114;51.138;6.008;2023-04-19T14:11:19;18.49;25.41
66312;HTU21D;53114;51.138;6.008;2023-04-19T14:13:46;18.34;25.61
66312;HTU21D;53114;51.138;6.008;2023-04-19T14:16:13;18.36;25.99
66312;HTU21D;53114;51.138;6.008;2023-04-19T14:18:39;18.48;25.62
66312;HTU21D;53114;51.138;6.008;2023-04-19T14:21:05;18.59;26.80
66312;HTU21D;53114;51.138;6.008;2023-04-19T14:23:32;18.71;26.30
66312;HTU21D;53114;51.138;6.008;2023-04-19T14:25:58;18.58;26.22
66312;HTU21D;53114;51.138;6.008;2023-04-19T14:28:24;18.50;26.14
66312;HTU21D;53114;51.138;6.008;2023-04-19T14:30:50;18.38;26.20
66312;HTU21D;53114;51.138;6.008;2023-04-19T14:33:16;18.38;27.27
66312;HTU21D;53114;51.138;6.008;2023-04-19T14:35:42;18.39;26.47
66312;HTU21D;53114;51.138;6.008;2023-04-19T14:38:08;18.29;26.40
66312;HTU21D;53114;51.138;6.008;2023-04-19T14:40:34;18.30;25.98
66312;HTU21D;53114;51.138;6.008;2023-04-19T14:43:00;18.44;26.29
66312;HTU21D;53114;51.138;6.008;2023-04-19T14:45:26;18.57;25.63
66312;HTU21D;53114;51.138;6.008;2023-04-19T14:47:52;18.57;25.08
66312;HTU21D;53114;51.138;6.008;2023-04-19T14:50:18;18.56;25.53
66312;HTU21D;53114;51.138;6.008;2023-04-19T14:52:44;18.64;25.58
66312;HTU21D;53114;51.138;6.008;2023-04-19T14:55:10;18.62;25.48
66312;HTU21D;53114;51.138;6.008;2023-04-19T14:57:36;18.53;25.36
66312;HTU21D;53114;51.138;6.008;2023-04-19T15:00:02;18.48;25.87
66312;HTU21D;53114;51.138;6.008;2023-04-19T15:02:31;18.53;25.88
66312;HTU21D;53114;51.138;6.008;2023-04-19T15:04:57;18.41;26.52
66312;HTU21D;53114;51.138;6.008;2023-04-19T15:07:22;18.49;26.54
66312;HTU21D;53114;51.138;6.008;2023-04-19T15:09:48;18.51;27.00
66312;HTU21D;53114;51.138;6.008;2023-04-19T15:12:14;18.58;27.33
66312;HTU21D;53114;51.138;6.008;2023-04-19T15:14:40;18.67;27.60
66312;HTU21D;53114;51.138;6.008;2023-04-19T15:17:06;18.78;28.03
66312;HTU21D;53114;51.138;6.008;2023-04-19T15:19:32;18.84;28.21
66312;HTU21D;53114;51.138;6.008;2023-04-19T15:21:58;18.80;28.15